Time;durP1;ratioP1;P1;durP2;ratioP2;P2;SDS_P1;SDS_P2;PMS_P1;PMS_P2;Temp;Humidity;BMP_temperature;BMP_pressure;BME280_temperature;BME280_humidity;BME280_pressure;Samples;Min_cycle;Max_cycle;Signal;HPM_P1;HPM_P2
2022/12/11 00:01:27;;;;;;;71.35;34.55;;;-2.00;99.90;;;-3.58;100.00;96701.06;5011815;28;20464;-72
2022/12/11 00:03:55;;;;;;;67.77;33.90;;;-2.00;99.90;;;-3.61;100.00;96692.88;5011144;28;20415;-72
2022/12/11 00:06:22;;;;;;;65.82;33.47;;;-2.00;99.90;;;-3.61;100.00;96691.06;5010423;28;20451;-72
2022/12/11 00:08:50;;;;;;;63.50;33.42;;;-2.00;99.90;;;-3.63;100.00;96695.63;5002003;28;20409;-74
2022/12/11 00:11:16;;;;;;;62.35;31.20;;;-2.00;99.90;;;-3.69;100.00;96687.78;5007270;28;20791;-73
2022/12/11 00:13:43;;;;;;;61.90;32.03;;;-2.10;99.90;;;-3.68;100.00;96689.38;5011459;28;20492;-73
2022/12/11 00:16:09;;;;;;;54.53;28.50;;;-2.10;99.90;;;-3.68;100.00;96700.53;5012710;28;20472;-73
2022/12/11 00:18:36;;;;;;;58.63;30.35;;;-2.10;99.90;;;-3.62;100.00;96692.06;5012643;28;20424;-73
2022/12/11 00:21:07;;;;;;;53.28;27.73;;;-2.00;99.90;;;-3.58;100.00;96688.13;5012414;28;20424;-73
2022/12/11 00:23:35;;;;;;;55.20;28.00;;;-2.00;99.90;;;-3.48;100.00;96689.66;5010218;28;20405;-73
2022/12/11 00:26:05;;;;;;;60.67;30.30;;;-1.90;99.90;;;-3.37;100.00;96684.81;5012509;28;20880;-73
2022/12/11 00:28:31;;;;;;;56.10;29.63;;;-1.80;99.90;;;-3.27;100.00;96685.31;5012434;28;20902;-73
2022/12/11 00:30:57;;;;;;;58.10;30.33;;;-1.70;99.90;;;-3.19;100.00;96689.59;5010992;28;20413;-73
2022/12/11 00:33:25;;;;;;;59.03;30.65;;;-1.60;99.90;;;-3.10;100.00;96688.50;5011323;28;20407;-73
2022/12/11 00:35:51;;;;;;;56.30;29.30;;;-1.60;99.90;;;-3.02;100.00;96685.81;5012270;28;20404;-73
2022/12/11 00:38:20;;;;;;;59.65;30.70;;;-1.50;99.90;;;-2.94;100.00;96692.66;5012230;28;20905;-73
2022/12/11 00:40:48;;;;;;;66.00;32.65;;;-1.40;99.90;;;-2.86;100.00;96685.59;5012290;28;20420;-73
2022/12/11 00:43:14;;;;;;;64.57;32.83;;;-1.30;99.90;;;-2.76;100.00;96686.06;5011365;28;20612;-73
2022/12/11 00:45:42;;;;;;;66.75;33.92;;;-1.20;99.90;;;-2.71;100.00;96677.75;5012047;28;20499;-73
2022/12/11 00:48:09;;;;;;;62.65;33.10;;;-1.20;99.90;;;-2.65;100.00;96687.38;5012048;28;20484;-73
2022/12/11 00:50:36;;;;;;;63.77;32.90;;;-1.20;99.90;;;-2.61;100.00;96686.00;5012042;28;20413;-73
2022/12/11 00:53:03;;;;;;;60.70;32.13;;;-1.10;99.90;;;-2.56;100.00;96688.06;5010864;28;20404;-73
2022/12/11 00:55:30;;;;;;;63.15;31.25;;;-1.10;99.90;;;-2.52;100.00;96682.31;5012033;28;20487;-73
2022/12/11 00:57:59;;;;;;;59.95;31.15;;;-1.00;99.90;;;-2.48;100.00;96685.34;5010545;28;21036;-73
2022/12/11 01:00:25;;;;;;;59.20;30.52;;;-1.00;99.90;;;-2.44;100.00;96689.16;5011524;28;20767;-73
2022/12/11 01:02:51;;;;;;;62.65;33.08;;;-0.90;99.90;;;-2.40;100.00;96693.75;5011162;28;20420;-73
2022/12/11 01:05:17;;;;;;;61.97;31.63;;;-0.90;99.90;;;-2.37;100.00;96701.19;5011840;28;20428;-73
2022/12/11 01:07:43;;;;;;;63.40;32.35;;;-0.90;99.90;;;-2.34;100.00;96702.59;5010326;28;20508;-73
2022/12/11 01:10:23;;;;;;;63.50;32.22;;;-0.80;99.90;;;-2.31;100.00;96698.81;5010275;28;20462;-73
2022/12/11 01:12:50;;;;;;;58.72;31.25;;;-0.80;99.90;;;-2.30;100.00;96706.41;5010676;28;20871;-73
2022/12/11 01:15:17;;;;;;;63.42;32.95;;;-0.80;99.90;;;-2.29;100.00;96715.00;5011659;28;20451;-74
2022/12/11 01:17:42;;;;;;;58.40;31.27;;;-0.80;99.90;;;-2.30;100.00;96711.59;5011457;28;20416;-73
2022/12/11 01:20:09;;;;;;;56.67;30.88;;;-0.80;99.90;;;-2.28;100.00;96714.81;5011412;28;20767;-73
2022/12/11 01:22:35;;;;;;;66.07;32.88;;;-0.80;99.90;;;-2.27;100.00;96715.63;5009819;28;20970;-73
2022/12/11 01:25:01;;;;;;;56.40;30.52;;;-0.80;99.90;;;-2.28;100.00;96722.59;5010653;28;20527;-73
2022/12/11 01:27:27;;;;;;;60.08;30.25;;;-0.80;99.90;;;-2.26;100.00;96725.00;5011349;28;20401;-73
2022/12/11 01:29:54;;;;;;;64.68;33.78;;;-0.80;99.90;;;-2.24;100.00;96723.81;5011465;28;20499;-73
2022/12/11 01:32:20;;;;;;;63.92;33.10;;;-0.80;99.90;;;-2.23;100.00;96711.66;5009692;28;20484;-73
2022/12/11 01:34:46;;;;;;;62.83;32.08;;;-0.70;99.90;;;-2.21;100.00;96720.84;5010168;28;20421;-73
2022/12/11 01:37:12;;;;;;;62.72;31.85;;;-0.70;99.90;;;-2.14;100.00;96713.13;5011220;28;20453;-73
2022/12/11 01:39:39;;;;;;;61.15;32.65;;;-0.70;99.90;;;-2.17;100.00;96714.28;5011211;28;20449;-73
2022/12/11 01:42:09;;;;;;;57.33;31.45;;;-0.70;99.90;;;-2.17;100.00;96719.47;5010938;28;20467;-74
2022/12/11 01:45:23;;;;;;;61.90;33.08;;;-0.70;99.90;;;-2.14;100.00;96716.50;5010164;28;20412;-73
2022/12/11 01:47:54;;;;;;;68.07;35.87;;;-0.70;99.90;;;-2.12;100.00;96724.91;5004602;28;20482;-73
2022/12/11 01:50:20;;;;;;;62.83;33.40;;;-0.60;99.90;;;-2.10;100.00;96722.09;5010789;28;20472;-73
2022/12/11 01:52:48;;;;;;;65.63;33.13;;;-0.60;99.90;;;-2.05;100.00;96723.19;5009872;28;20413;-73
2022/12/11 01:55:17;;;;;;;62.38;33.25;;;-0.60;99.90;;;-2.03;100.00;96728.19;5011034;28;20408;-73
2022/12/11 01:57:47;;;;;;;62.70;32.55;;;-0.50;99.90;;;-1.99;100.00;96730.19;5010812;28;20401;-73
2022/12/11 02:00:14;;;;;;;69.68;35.80;;;-0.60;99.90;;;-1.96;100.00;96731.63;5010660;28;20431;-74
2022/12/11 02:02:40;;;;;;;63.83;33.00;;;-0.50;99.90;;;-1.94;100.00;96729.63;5010005;28;20933;-73
2022/12/11 02:05:08;;;;;;;65.55;34.15;;;-0.50;99.90;;;-1.93;100.00;96733.81;5010534;28;20408;-73
2022/12/11 02:07:40;;;;;;;68.45;34.97;;;-0.50;99.90;;;-1.97;100.00;96727.41;5010670;28;20405;-73
2022/12/11 02:10:09;;;;;;;61.97;33.37;;;-0.50;99.90;;;-1.97;100.00;96735.19;5010585;28;20409;-73
2022/12/11 02:12:45;;;;;;;65.22;34.13;;;-0.50;99.90;;;-1.97;100.00;96730.00;5010396;28;20500;-73
2022/12/11 02:15:20;;;;;;;59.67;31.77;;;-0.50;99.90;;;-1.97;100.00;96733.41;5010538;28;20393;-74
2022/12/11 02:17:52;;;;;;;55.22;31.52;;;-0.50;99.90;;;-1.97;100.00;96732.59;5010555;28;20437;-73
2022/12/11 02:20:26;;;;;;;58.58;31.42;;;-0.50;99.90;;;-1.98;100.00;96731.81;5010387;28;20474;-73
2022/12/11 02:23:11;;;;;;;50.23;29.50;;;-0.50;99.90;;;-2.02;100.00;96727.97;5008351;28;20441;-73
2022/12/11 02:25:48;;;;;;;48.27;27.27;;;-0.50;99.90;;;-2.05;100.00;96735.34;5010562;28;20487;-73
2022/12/11 02:28:22;;;;;;;48.17;28.02;;;-0.60;99.90;;;-2.09;100.00;96729.72;5010304;28;20397;-73
2022/12/11 02:30:55;;;;;;;50.03;27.55;;;-0.60;99.90;;;-2.13;100.00;96722.50;5010249;28;20740;-73
2022/12/11 02:33:32;;;;;;;51.25;28.23;;;-0.60;99.90;;;-2.18;100.00;96719.69;5009292;28;20862;-73
2022/12/11 02:36:00;;;;;;;52.50;28.55;;;-0.70;99.90;;;-2.21;100.00;96718.25;5010259;28;20516;-73
2022/12/11 02:38:32;;;;;;;57.20;30.10;;;-0.70;99.90;;;-2.23;100.00;96725.41;5010201;28;20387;-73
2022/12/11 02:40:59;;;;;;;49.60;27.23;;;-0.80;99.90;;;-2.25;100.00;96729.97;5010230;28;20424;-73
2022/12/11 02:43:29;;;;;;;46.75;25.98;;;-0.80;99.90;;;-2.22;100.00;96729.59;5009213;28;20408;-73
2022/12/11 02:45:57;;;;;;;51.20;27.92;;;-0.70;99.90;;;-2.22;100.00;96727.00;5010191;28;20871;-73
2022/12/11 02:48:23;;;;;;;42.67;25.60;;;-0.70;99.90;;;-2.23;100.00;96730.59;5008844;28;20466;-73
2022/12/11 02:50:54;;;;;;;41.10;24.67;;;-0.80;99.90;;;-2.25;100.00;96731.75;5010066;28;20401;-73
2022/12/11 02:53:25;;;;;;;40.40;23.63;;;-0.80;99.90;;;-2.25;100.00;96732.56;5009099;28;20411;-73
2022/12/11 02:55:59;;;;;;;44.78;26.33;;;-0.80;99.90;;;-2.25;100.00;96732.56;5008912;28;20462;-73
2022/12/11 02:58:31;;;;;;;44.63;24.52;;;-0.80;99.90;;;-2.26;100.00;96728.38;5010075;28;20413;-73
2022/12/11 03:00:57;;;;;;;45.05;25.02;;;-0.80;99.90;;;-2.26;100.00;96728.38;5009957;28;20764;-73
2022/12/11 03:03:24;;;;;;;44.38;25.23;;;-0.80;99.90;;;-2.24;100.00;96726.38;5009065;28;20428;-73
2022/12/11 03:05:50;;;;;;;45.80;25.55;;;-0.80;99.90;;;-2.20;100.00;96722.44;5009987;28;20458;-73
2022/12/11 03:08:17;;;;;;;49.22;26.92;;;-0.70;99.90;;;-2.16;100.00;96720.28;5008632;28;20753;-73
2022/12/11 03:10:43;;;;;;;44.67;25.90;;;-0.70;99.90;;;-2.12;100.00;96718.94;5009845;28;20409;-73
2022/12/11 03:13:11;;;;;;;46.85;26.40;;;-0.70;99.90;;;-2.10;100.00;96722.91;5008986;28;20887;-73
2022/12/11 03:15:49;;;;;;;48.38;27.58;;;-0.60;99.90;;;-2.08;100.00;96728.72;5009976;28;21059;-73
2022/12/11 03:18:26;;;;;;;51.67;26.20;;;-0.60;99.90;;;-2.06;100.00;96721.56;5009845;28;20487;-73
2022/12/11 03:21:04;;;;;;;43.53;24.10;;;-0.60;99.90;;;-2.05;100.00;96718.00;5009799;28;20427;-73
2022/12/11 03:23:34;;;;;;;45.35;24.55;;;-0.60;99.90;;;-2.05;100.00;96718.00;5008945;28;20508;-73
2022/12/11 03:26:04;;;;;;;45.42;25.02;;;-0.60;99.90;;;-2.08;100.00;96722.72;5009833;28;20484;-73
2022/12/11 03:28:37;;;;;;;40.47;22.60;;;-0.60;99.90;;;-2.15;100.00;96719.28;5010046;28;20411;-73
2022/12/11 03:31:11;;;;;;;39.28;23.20;;;-0.70;99.90;;;-2.20;100.00;96732.81;5009711;28;20431;-73
2022/12/11 03:33:40;;;;;;;41.38;23.83;;;-0.70;99.90;;;-2.24;100.00;96728.19;5012549;28;20409;-73
2022/12/11 03:36:12;;;;;;;42.50;23.63;;;-0.70;99.90;;;-2.30;100.00;96727.16;5013525;28;20432;-73
2022/12/11 03:38:45;;;;;;;48.22;25.77;;;-0.80;99.90;;;-2.34;100.00;96731.09;5013544;28;20752;-73
2022/12/11 03:41:13;;;;;;;42.72;23.70;;;-0.80;99.90;;;-2.38;100.00;96727.28;5013376;28;20420;-73
2022/12/11 03:43:40;;;;;;;41.55;22.63;;;-0.90;99.90;;;-2.40;100.00;96724.06;5012517;28;20443;-73
2022/12/11 03:46:10;;;;;;;43.90;24.90;;;-0.90;99.90;;;-2.40;100.00;96735.22;5013399;28;20770;-73
2022/12/11 03:48:40;;;;;;;48.28;27.00;;;-0.90;99.90;;;-2.36;100.00;96731.28;5013380;28;20455;-73
2022/12/11 03:51:07;;;;;;;47.13;27.75;;;-0.90;99.90;;;-2.37;100.00;96731.47;5013214;28;20540;-73
2022/12/11 03:53:34;;;;;;;44.90;27.00;;;-0.90;99.90;;;-2.37;100.00;96723.69;5012312;28;20408;-73
2022/12/11 03:56:02;;;;;;;51.63;28.58;;;-0.90;99.90;;;-2.40;100.00;96727.44;5013049;28;20413;-73
2022/12/11 03:58:28;;;;;;;46.38;26.52;;;-0.90;99.90;;;-2.36;100.00;96720.94;5011836;28;20401;-73
2022/12/11 04:00:54;;;;;;;53.72;29.55;;;-0.90;99.90;;;-2.37;100.00;96721.09;5013005;28;20413;-73
2022/12/11 04:03:21;;;;;;;52.38;29.77;;;-0.90;99.90;;;-2.35;100.00;96712.16;5010721;28;20451;-73
2022/12/11 04:05:50;;;;;;;58.00;30.80;;;-0.90;99.90;;;-2.39;100.00;96717.88;5013114;28;20594;-73
2022/12/11 04:08:19;;;;;;;54.83;29.70;;;-0.90;99.90;;;-2.36;100.00;96725.31;5012859;28;20422;-73
2022/12/11 04:10:45;;;;;;;55.38;29.58;;;-0.90;99.90;;;-2.35;100.00;96719.13;5012630;28;20423;-73
2022/12/11 04:13:11;;;;;;;56.53;32.07;;;-0.90;99.90;;;-2.39;100.00;96713.50;5011951;28;20907;-73
2022/12/11 04:15:39;;;;;;;57.10;31.43;;;-0.90;99.90;;;-2.40;100.00;96711.91;5013122;28;20409;-73
2022/12/11 04:26:23;;;;;;;51.97;28.97;;;-1.00;99.90;;;-2.47;100.00;96705.84;5012501;28;20455;-73
2022/12/11 04:28:49;;;;;;;52.90;30.13;;;-1.00;99.90;;;-2.47;100.00;96699.88;5012640;28;20401;-74
2022/12/11 04:31:18;;;;;;;52.40;29.75;;;-1.00;99.90;;;-2.46;100.00;96698.88;5012502;28;20393;-73
2022/12/11 04:33:44;;;;;;;53.80;30.38;;;-1.00;99.90;;;-2.46;100.00;96699.69;5011319;28;20402;-73
2022/12/11 04:36:12;;;;;;;51.50;31.27;;;-1.00;99.90;;;-2.42;100.00;96690.56;5012436;28;20538;-73
2022/12/11 04:38:39;;;;;;;54.95;31.00;;;-1.00;99.90;;;-2.45;100.00;96695.31;5012368;28;20828;-73
2022/12/11 04:41:07;;;;;;;48.40;28.73;;;-1.00;99.90;;;-2.46;100.00;96691.13;5012071;28;20992;-73
2022/12/11 04:43:33;;;;;;;47.70;28.05;;;-1.00;99.90;;;-2.51;100.00;96685.69;5010930;28;20413;-73
2022/12/11 04:46:04;;;;;;;47.77;27.17;;;-1.10;99.90;;;-2.62;100.00;96694.75;5012169;28;20460;-73
2022/12/11 04:48:30;;;;;;;41.08;25.33;;;-1.20;99.90;;;-2.61;100.00;96680.03;5012108;28;20405;-73
2022/12/11 04:50:55;;;;;;;47.70;27.88;;;-1.20;99.90;;;-2.57;100.00;96676.88;5011993;28;20396;-73
2022/12/11 04:53:23;;;;;;;45.25;26.67;;;-1.10;99.90;;;-2.64;100.00;96685.59;5031621;22;20935;-72
2022/12/11 04:55:49;;;;;;;41.53;25.90;;;-1.20;99.90;;;-2.65;100.00;96678.81;5031937;28;20403;-74
2022/12/11 04:58:15;;;;;;;43.97;26.65;;;-1.20;99.90;;;-2.65;100.00;96671.84;5031930;28;20430;-74
2022/12/11 05:00:41;;;;;;;40.78;25.20;;;-1.20;99.90;;;-2.59;100.00;96665.91;5031651;28;20506;-74
2022/12/11 05:03:07;;;;;;;37.72;24.48;;;-1.20;99.90;;;-2.58;100.00;96666.72;5030651;28;20410;-74
2022/12/11 05:05:33;;;;;;;45.07;27.13;;;-1.20;99.90;;;-2.56;100.00;96667.34;5031602;28;20407;-74
2022/12/11 05:07:59;;;;;;;46.03;27.05;;;-1.10;99.90;;;-2.50;100.00;96666.59;5013887;28;20440;-74
2022/12/11 05:10:26;;;;;;;38.50;23.70;;;-1.10;99.90;;;-2.54;100.00;96667.94;5031350;28;20413;-73
2022/12/11 05:12:52;;;;;;;43.17;26.17;;;-1.10;99.90;;;-2.51;100.00;96663.19;5030863;28;20403;-74
2022/12/11 05:15:18;;;;;;;43.58;25.33;;;-1.10;99.90;;;-2.52;100.00;96663.38;5031481;28;20438;-74
2022/12/11 05:17:44;;;;;;;40.73;24.97;;;-1.10;99.90;;;-2.50;100.00;96667.38;5031383;28;20528;-74
2022/12/11 05:20:10;;;;;;;41.63;25.33;;;-1.00;99.90;;;-2.42;100.00;96672.44;5031520;28;20478;-74
2022/12/11 05:22:37;;;;;;;42.10;24.10;;;-1.00;99.90;;;-2.45;100.00;96666.81;5031090;28;20775;-74
2022/12/11 05:25:04;;;;;;;34.85;21.02;;;-1.00;99.90;;;-2.46;100.00;96668.59;5030652;28;20413;-74
2022/12/11 05:27:32;;;;;;;37.22;22.92;;;-1.00;99.90;;;-2.47;100.00;96679.16;5031130;28;20502;-74
2022/12/11 05:29:58;;;;;;;35.93;21.80;;;-1.00;99.90;;;-2.41;100.00;96665.47;5031176;28;20986;-74
2022/12/11 05:32:24;;;;;;;36.83;22.30;;;-1.00;99.90;;;-2.46;100.00;96654.84;5030898;28;20403;-74
2022/12/11 05:34:50;;;;;;;31.97;19.60;;;-1.00;99.90;;;-2.62;100.00;96657.69;5020266;28;20824;-74
2022/12/11 05:37:16;;;;;;;33.50;21.13;;;-1.20;99.90;;;-2.62;100.00;96655.09;5022558;28;20411;-74
2022/12/11 05:39:42;;;;;;;35.15;21.73;;;-1.20;99.90;;;-2.76;100.00;96652.41;5028697;28;20415;-74
2022/12/11 05:42:08;;;;;;;33.63;21.58;;;-1.30;99.90;;;-2.78;100.00;96651.78;5030567;28;20461;-74
2022/12/11 05:44:35;;;;;;;38.88;22.52;;;-1.30;99.90;;;-2.82;100.00;96658.31;5029980;28;20399;-74
2022/12/11 05:47:01;;;;;;;39.92;24.02;;;-1.30;99.90;;;-2.89;100.00;96660.06;5030938;28;20898;-74
2022/12/11 05:49:27;;;;;;;43.45;25.25;;;-1.30;99.90;;;-2.95;100.00;96671.16;5030841;28;20403;-74
2022/12/11 05:51:53;;;;;;;43.05;24.52;;;-1.40;99.90;;;-2.97;100.00;96664.53;5030676;28;20402;-74
2022/12/11 05:54:19;;;;;;;45.65;24.20;;;-1.40;99.90;;;-3.06;100.00;96671.63;5029193;28;20418;-75
2022/12/11 05:56:45;;;;;;;45.42;25.27;;;-1.50;99.90;;;-3.13;100.00;96668.97;5030615;28;20430;-73
2022/12/11 05:59:10;;;;;;;46.83;25.83;;;-1.50;99.90;;;-3.17;100.00;96678.09;5030628;28;20407;-71
2022/12/11 06:01:41;;;;;;;41.97;24.75;;;-1.60;99.90;;;-3.23;100.00;96673.63;5030459;28;20976;-73
2022/12/11 06:04:09;;;;;;;46.40;25.65;;;-1.60;99.90;;;-3.26;100.00;96670.59;5029549;28;20403;-72
2022/12/11 06:06:37;;;;;;;47.85;26.10;;;-1.70;99.90;;;-3.29;100.00;96678.72;5030384;28;21091;-72
2022/12/11 06:09:04;;;;;;;45.35;25.02;;;-1.70;99.90;;;-3.31;100.00;96673.75;5030386;28;20490;-74
2022/12/11 06:11:32;;;;;;;46.72;25.65;;;-1.70;99.90;;;-3.34;100.00;96675.88;5030011;28;20810;-73
2022/12/11 06:13:59;;;;;;;44.67;24.67;;;-1.70;99.90;;;-3.41;100.00;96682.78;5029512;28;20403;-73
2022/12/11 06:16:25;;;;;;;41.40;23.55;;;-1.80;99.90;;;-3.48;100.00;96676.72;5030209;28;20442;-73
2022/12/11 06:18:53;;;;;;;42.20;24.40;;;-1.90;99.90;;;-3.54;100.00;96675.66;5030382;28;20425;-74
2022/12/11 06:21:21;;;;;;;47.92;25.17;;;-2.00;99.90;;;-3.55;100.00;96679.22;5030205;28;20406;-73
2022/12/11 06:23:53;;;;;;;52.58;28.35;;;-2.00;99.90;;;-3.53;100.00;96675.44;5029180;28;20411;-73
2022/12/11 06:26:20;;;;;;;49.97;26.00;;;-2.00;99.90;;;-3.56;100.00;96669.84;5030154;28;20398;-74
2022/12/11 06:28:47;;;;;;;48.80;26.30;;;-2.00;99.90;;;-3.64;100.00;96675.13;5012252;28;20983;-74
2022/12/11 06:31:13;;;;;;;48.75;25.38;;;-2.00;99.90;;;-3.70;100.00;96668.09;5023100;28;20411;-74
2022/12/11 06:33:40;;;;;;;54.93;27.97;;;-2.10;99.90;;;-3.74;100.00;96659.88;5023185;28;20459;-74
2022/12/11 06:36:10;;;;;;;49.50;26.17;;;-2.10;99.90;;;-3.76;100.00;96661.81;5021750;28;20437;-73
2022/12/11 06:38:37;;;;;;;58.80;30.25;;;-2.10;99.90;;;-3.72;100.00;96660.50;5024602;28;20411;-74
2022/12/11 06:41:06;;;;;;;62.97;33.53;;;-2.10;99.90;;;-3.54;100.00;96660.13;5026118;28;20423;-73
2022/12/11 06:43:33;;;;;;;51.60;28.48;;;-2.00;99.90;;;-3.52;100.00;96648.59;5024361;28;20479;-74
2022/12/11 06:46:02;;;;;;;53.53;28.98;;;-2.00;99.90;;;-3.52;100.00;96664.13;5020354;28;20396;-74
2022/12/11 06:48:28;;;;;;;51.47;27.55;;;-2.00;99.90;;;-3.53;100.00;96661.72;5023044;28;20466;-73
2022/12/11 06:50:54;;;;;;;56.80;28.88;;;-2.00;99.90;;;-3.53;100.00;96653.97;5024102;28;20829;-73
2022/12/11 06:53:21;;;;;;;48.80;26.85;;;-2.00;99.90;;;-3.64;100.00;96657.81;5023168;28;20466;-73
2022/12/11 06:55:47;;;;;;;54.47;28.42;;;-2.00;99.90;;;-3.70;100.00;96670.66;5025596;28;20426;-73
2022/12/11 06:58:13;;;;;;;58.22;30.45;;;-2.10;99.90;;;-3.74;100.00;96667.63;5020423;28;20409;-73
2022/12/11 07:00:39;;;;;;;56.43;29.20;;;-2.10;99.90;;;-3.76;100.00;96672.16;5020632;28;20453;-73
2022/12/11 07:03:05;;;;;;;52.25;27.02;;;-2.20;99.90;;;-3.82;100.00;96674.66;5016057;28;20436;-73
2022/12/11 07:05:32;;;;;;;55.83;29.60;;;-2.20;99.90;;;-3.87;100.00;96675.22;5025228;28;20432;-73
2022/12/11 07:07:58;;;;;;;54.65;29.35;;;-2.20;99.90;;;-3.82;100.00;96680.63;5023594;28;20412;-73
2022/12/11 07:10:25;;;;;;;50.88;26.63;;;-2.20;99.90;;;-3.91;100.00;96679.16;5025065;28;20415;-73
2022/12/11 07:12:52;;;;;;;51.25;27.70;;;-2.30;99.90;;;-3.97;100.00;96669.50;5032152;28;20391;-72
2022/12/11 07:15:19;;;;;;;48.55;25.52;;;-2.30;99.90;;;-3.98;100.00;96678.22;5036053;28;20609;-75
2022/12/11 07:17:45;;;;;;;52.03;27.38;;;-2.40;99.90;;;-4.01;100.00;96683.75;5031325;28;20541;-73
2022/12/11 07:20:11;;;;;;;57.20;29.10;;;-2.40;99.90;;;-3.93;100.00;96676.72;5027984;28;20479;-73
2022/12/11 07:22:37;;;;;;;50.80;27.50;;;-2.40;99.90;;;-3.90;100.00;96683.31;5032986;28;20418;-74
2022/12/11 07:25:04;;;;;;;49.60;26.13;;;-2.30;99.90;;;-3.96;100.00;96689.19;5032796;28;20685;-75
2022/12/11 07:27:31;;;;;;;53.53;29.13;;;-2.40;99.90;;;-3.95;100.00;96683.06;5033438;28;20649;-76
2022/12/11 07:29:57;;;;;;;48.47;26.15;;;-2.30;99.90;;;-3.91;100.00;96684.31;5028142;28;20414;-75
2022/12/11 07:32:23;;;;;;;44.25;24.60;;;-2.30;99.90;;;-3.85;100.00;96685.38;5026419;28;20553;-74
2022/12/11 07:34:50;;;;;;;47.88;25.27;;;-2.20;99.90;;;-3.81;100.00;96684.84;5024924;28;20912;-74
2022/12/11 07:37:16;;;;;;;48.25;26.27;;;-2.20;99.90;;;-3.76;100.00;96685.09;5028721;28;20454;-75
2022/12/11 07:39:42;;;;;;;53.35;28.23;;;-2.10;99.90;;;-3.68;100.00;96684.19;5028349;28;20398;-75
2022/12/11 07:42:08;;;;;;;44.75;25.20;;;-2.10;99.90;;;-3.61;100.00;96687.69;5018491;28;20444;-75
2022/12/11 07:44:35;;;;;;;52.65;28.02;;;-2.00;99.90;;;-3.53;100.00;96687.56;5021628;28;20500;-74
2022/12/11 07:47:01;;;;;;;49.53;27.07;;;-2.00;99.90;;;-3.44;100.00;96694.28;5019944;28;20407;-74
2022/12/11 07:49:27;;;;;;;48.00;27.33;;;-1.90;99.90;;;-3.34;100.00;96694.00;5031726;28;20919;-75
2022/12/11 07:51:53;;;;;;;52.33;29.08;;;-1.80;99.90;;;-3.25;100.00;96685.16;5026690;28;20393;-73
2022/12/11 07:54:19;;;;;;;49.60;28.87;;;-1.70;99.90;;;-3.16;100.00;96684.84;5021117;28;20411;-75
2022/12/11 07:56:46;;;;;;;46.17;27.35;;;-1.60;99.90;;;-3.05;100.00;96681.00;5020101;28;20415;-73
2022/12/11 07:59:13;;;;;;;45.90;27.00;;;-1.50;99.90;;;-2.95;100.00;96686.69;5032316;28;20888;-76
2022/12/11 08:01:41;;;;;;;49.38;28.10;;;-1.40;99.90;;;-2.85;100.00;96679.41;5032501;28;20410;-76
2022/12/11 08:04:10;;;;;;;46.75;27.38;;;-1.30;99.90;;;-2.72;100.00;96685.72;5031772;28;20398;-76
2022/12/11 08:06:38;;;;;;;48.58;27.80;;;-1.20;99.90;;;-2.60;100.00;96677.25;5032703;28;20481;-74
2022/12/11 08:09:07;;;;;;;49.90;28.40;;;-1.10;99.90;;;-2.51;100.00;96678.72;5032614;28;20426;-75
2022/12/11 08:11:33;;;;;;;46.50;27.70;;;-1.00;99.90;;;-2.41;100.00;96679.22;5032497;28;20954;-75
2022/12/11 08:14:00;;;;;;;44.60;25.90;;;-0.90;99.90;;;-2.33;100.00;96677.50;5031630;28;20486;-75
2022/12/11 08:16:26;;;;;;;41.97;26.00;;;-0.80;99.90;;;-2.27;100.00;96676.72;5032582;28;20798;-75
2022/12/11 08:18:53;;;;;;;44.73;27.13;;;-0.80;99.90;;;-2.22;100.00;96674.38;5031867;28;20395;-74
2022/12/11 08:21:22;;;;;;;43.25;26.05;;;-0.70;99.90;;;-2.19;100.00;96674.81;5032550;28;20419;-75
2022/12/11 08:23:49;;;;;;;45.38;26.02;;;-0.70;99.90;;;-2.13;100.00;96676.63;5031397;28;20395;-75
2022/12/11 08:26:18;;;;;;;47.97;27.42;;;-0.60;99.90;;;-2.08;100.00;96671.69;5032306;28;20399;-75
2022/12/11 08:28:44;;;;;;;43.72;27.38;;;-0.60;99.90;;;-2.00;100.00;96678.50;5032128;28;20414;-75
2022/12/11 08:31:12;;;;;;;43.42;26.27;;;-0.60;99.90;;;-1.95;100.00;96673.56;5032152;28;20410;-73
2022/12/11 08:33:40;;;;;;;41.97;25.53;;;-0.50;99.90;;;-1.89;100.00;96674.59;5031321;28;20869;-76
2022/12/11 08:36:11;;;;;;;47.78;28.50;;;-0.40;99.90;;;-1.87;100.00;96670.00;5031956;28;20403;-75
2022/12/11 08:38:38;;;;;;;41.55;25.92;;;-0.40;99.90;;;-1.84;100.00;96675.63;5032204;28;20862;-75
2022/12/11 08:41:08;;;;;;;47.40;26.67;;;-0.40;99.90;;;-1.80;100.00;96683.81;5032128;28;20426;-75
2022/12/11 08:43:34;;;;;;;45.38;27.10;;;-0.30;99.90;;;-1.77;100.00;96683.44;5031152;28;20489;-74
2022/12/11 08:46:00;;;;;;;45.70;27.47;;;-0.30;99.90;;;-1.75;100.00;96684.88;5032011;28;20494;-78
2022/12/11 08:48:26;;;;;;;43.05;26.52;;;-0.30;99.90;;;-1.73;100.00;96685.47;5031811;28;20924;-75
2022/12/11 08:50:52;;;;;;;45.77;26.73;;;-0.30;99.90;;;-1.71;100.00;96693.06;5031842;28;20406;-76
2022/12/11 08:53:19;;;;;;;45.17;26.40;;;-0.30;99.90;;;-1.69;100.00;96685.88;5013103;28;20502;-73
2022/12/11 08:55:45;;;;;;;42.45;25.65;;;-0.30;99.90;;;-1.67;100.00;96684.72;5027913;28;20941;-75
2022/12/11 08:58:11;;;;;;;49.30;28.07;;;-0.30;99.90;;;-1.63;100.00;96679.94;5029228;28;20450;-76
2022/12/11 09:00:37;;;;;;;39.53;24.70;;;-0.20;99.90;;;-1.59;100.00;96675.97;5030003;28;20502;-73
2022/12/11 09:03:03;;;;;;;44.80;26.80;;;-0.20;99.90;;;-1.56;100.00;96678.16;5029909;28;20427;-72
2022/12/11 09:05:29;;;;;;;46.42;28.35;;;-0.10;99.90;;;-1.52;100.00;96674.22;5029008;28;20403;-73
2022/12/11 09:07:57;;;;;;;43.60;25.98;;;-0.10;99.90;;;-1.44;100.00;96675.84;5028385;28;20414;-74
2022/12/11 09:10:24;;;;;;;46.00;26.58;;;0.00;99.90;;;-1.45;100.00;96676.84;5029670;28;20410;-72
2022/12/11 09:12:50;;;;;;;40.57;24.27;;;0.00;99.90;;;-1.43;100.00;96674.84;5018388;28;20514;-75
2022/12/11 09:15:16;;;;;;;38.15;24.15;;;0.00;99.90;;;-1.41;100.00;96673.66;5024228;28;20402;-76
2022/12/11 09:17:42;;;;;;;41.28;24.15;;;0.00;99.90;;;-1.39;100.00;96671.66;5021171;28;20900;-76
2022/12/11 09:20:09;;;;;;;39.53;24.43;;;0.10;99.90;;;-1.35;100.00;96672.06;5018953;28;20491;-77
2022/12/11 09:22:35;;;;;;;37.95;22.63;;;0.10;99.90;;;-1.29;100.00;96668.72;5019232;28;20427;-77
2022/12/11 09:25:01;;;;;;;38.45;22.90;;;0.10;99.90;;;-1.25;100.00;96668.13;5018434;28;20407;-77
2022/12/11 09:27:28;;;;;;;39.08;24.40;;;0.20;99.90;;;-1.22;100.00;96672.13;5025846;28;20430;-75
2022/12/11 09:29:54;;;;;;;34.58;22.35;;;0.20;99.90;;;-1.21;100.00;96665.97;5014283;28;20409;-75
2022/12/11 09:32:20;;;;;;;37.28;23.90;;;0.20;99.90;;;-1.20;100.00;96667.53;5009850;28;20408;-75
2022/12/11 09:34:49;;;;;;;34.90;22.77;;;0.20;99.90;;;-1.25;100.00;96664.72;5018750;28;20484;-74
2022/12/11 09:37:15;;;;;;;36.13;22.75;;;0.10;99.90;;;-1.11;100.00;96668.16;5018129;28;20424;-74
2022/12/11 09:39:41;;;;;;;33.50;21.73;;;0.20;99.90;;;-1.02;100.00;96665.22;5018097;28;20832;-75
2022/12/11 09:42:14;;;;;;;37.50;23.77;;;0.40;99.90;;;-0.88;100.00;96671.22;5027958;28;20419;-75
2022/12/11 09:44:46;;;;;;;44.20;25.40;;;0.50;99.90;;;-0.93;100.00;96661.44;5028792;28;20541;-77
2022/12/11 09:47:22;;;;;;;31.17;20.55;;;0.50;99.90;;;-0.83;100.00;96664.44;5019395;28;20765;-76
2022/12/11 09:49:55;;;;;;;32.50;20.65;;;0.60;99.90;;;-0.74;100.00;96662.47;5025088;28;20494;-74
2022/12/11 09:52:30;;;;;;;33.13;21.83;;;0.60;99.90;;;-0.64;100.00;96652.50;5028208;28;20395;-76
2022/12/11 09:55:00;;;;;;;35.47;21.67;;;0.80;99.90;;;-0.56;100.00;96656.69;5028602;28;20403;-76
2022/12/11 09:57:42;;;;;;;33.75;20.90;;;0.80;99.90;;;-0.54;100.00;96659.91;5026077;28;20415;-75
2022/12/11 10:00:23;;;;;;;31.38;19.52;;;0.90;99.90;;;-0.60;100.00;96655.50;5023787;28;20424;-78
2022/12/11 10:03:28;;;;;;;33.63;21.25;;;0.80;99.90;;;-0.56;100.00;96647.09;5021276;28;20423;-77
2022/12/11 10:06:02;;;;;;;33.47;20.63;;;0.80;99.90;;;-0.72;100.00;96652.69;5025289;28;20812;-74
2022/12/11 10:08:35;;;;;;;32.15;20.85;;;0.70;99.90;;;-0.79;100.00;96655.28;5025934;28;20411;-74
2022/12/11 10:11:21;;;;;;;30.40;18.98;;;0.50;99.90;;;-0.74;100.00;96644.28;5018197;28;20512;-72
2022/12/11 10:13:57;;;;;;;33.80;21.20;;;0.60;99.90;;;-0.75;100.00;96641.91;5020231;28;20493;-75